createdAt,value
2023-01-20T00:02:19.845Z,71.64
2023-01-20T00:04:48.603Z,71.67
2023-01-20T00:07:15.751Z,71.60
2023-01-20T00:09:42.601Z,71.38
2023-01-20T00:12:09.541Z,71.12
2023-01-20T00:14:36.379Z,71.08
2023-01-20T00:17:03.431Z,71.20
2023-01-20T00:19:30.233Z,71.34
2023-01-20T00:21:57.015Z,71.24
2023-01-20T00:24:23.975Z,71.03
2023-01-20T00:26:50.866Z,70.86
2023-01-20T00:29:17.896Z,70.86
2023-01-20T00:31:45.164Z,70.80
2023-01-20T00:34:12.050Z,70.70
2023-01-20T00:37:36.751Z,70.80
2023-01-20T00:41:38.521Z,70.75
2023-01-20T00:44:30.357Z,70.90
2023-01-20T00:46:57.236Z,71.16
2023-01-20T00:49:24.242Z,71.25
2023-01-20T00:51:51.226Z,71.30
2023-01-20T00:54:18.342Z,71.40
2023-01-20T00:56:45.282Z,71.70
2023-01-20T00:59:12.227Z,71.71
2023-01-20T01:01:39.284Z,71.62
2023-01-20T01:04:06.326Z,71.49
2023-01-20T01:06:33.164Z,71.39
2023-01-20T01:09:00.119Z,71.37
2023-01-20T01:11:27.070Z,71.56
2023-01-20T01:13:55.846Z,71.63
2023-01-20T01:16:22.828Z,71.61
2023-01-20T01:18:49.738Z,71.57
2023-01-20T01:21:16.887Z,71.53
2023-01-20T01:23:43.777Z,71.38
2023-01-20T01:26:10.882Z,71.20
2023-01-20T01:28:37.962Z,71.10
2023-01-20T01:31:06.266Z,71.19
2023-01-20T01:33:33.566Z,71.12
2023-01-20T01:36:01.637Z,70.80
2023-01-20T01:38:28.593Z,70.57
2023-01-20T01:40:55.834Z,70.60
2023-01-20T01:43:33.574Z,70.51
2023-01-20T01:46:00.742Z,70.69
2023-01-20T01:48:37.151Z,70.80
2023-01-20T01:52:01.236Z,70.84
2023-01-20T01:55:06.190Z,70.95
2023-01-20T01:57:33.116Z,71.15
2023-01-20T02:00:00.071Z,71.10
2023-01-20T02:02:27.066Z,71.12
2023-01-20T02:04:54.068Z,71.08
2023-01-20T02:07:21.107Z,71.18
2023-01-20T02:09:48.274Z,71.15
2023-01-20T02:12:17.495Z,71.34
2023-01-20T02:14:47.387Z,71.30
2023-01-20T02:17:33.163Z,71.17
2023-01-20T02:20:09.939Z,71.20
2023-01-20T02:22:57.876Z,71.18
2023-01-20T02:25:27.736Z,71.01
2023-01-20T02:28:16.663Z,70.82
2023-01-20T02:31:10.113Z,70.92
2023-01-20T02:33:46.353Z,71.08
2023-01-20T02:36:23.274Z,71.07
2023-01-20T02:38:53.378Z,71.00
2023-01-20T02:41:39.572Z,71.12
2023-01-20T02:44:27.407Z,71.24
2023-01-20T02:47:26.045Z,71.36
2023-01-20T02:49:54.482Z,71.44
2023-01-20T02:52:24.041Z,71.30
2023-01-20T02:54:53.078Z,70.89
2023-01-20T02:57:24.089Z,70.60
2023-01-20T02:59:53.318Z,70.56
2023-01-20T03:02:21.213Z,70.68
2023-01-20T03:04:59.394Z,70.76
2023-01-20T03:07:27.800Z,70.66
2023-01-20T03:09:56.358Z,70.62
2023-01-20T03:12:32.109Z,70.57
2023-01-20T03:14:59.062Z,70.69
2023-01-20T03:17:26.005Z,70.44
2023-01-20T03:19:52.851Z,70.31
2023-01-20T03:22:19.797Z,70.27
2023-01-20T03:24:46.737Z,69.96
2023-01-20T03:27:13.692Z,69.88
2023-01-20T03:29:40.510Z,69.82
2023-01-20T03:32:08.391Z,69.85
2023-01-20T03:34:35.951Z,69.61
2023-01-20T03:37:02.774Z,69.13
2023-01-20T03:39:29.666Z,68.98
2023-01-20T03:42:17.779Z,69.53
2023-01-20T03:45:00.088Z,69.91
2023-01-20T03:47:48.502Z,70.00
2023-01-20T03:50:18.102Z,69.87
2023-01-20T03:52:48.770Z,69.77
2023-01-20T03:55:23.732Z,69.54
2023-01-20T03:57:58.217Z,69.61
2023-01-20T04:00:26.305Z,69.77
2023-01-20T04:03:58.901Z,70.02
2023-01-20T04:06:26.549Z,69.51
2023-01-20T04:08:57.183Z,69.44
2023-01-20T04:11:24.410Z,69.01
2023-01-20T04:13:51.387Z,68.78
2023-01-20T04:16:18.531Z,68.85
2023-01-20T04:18:50.377Z,69.05
2023-01-20T04:21:33.205Z,69.19
2023-01-20T04:24:31.386Z,69.15
2023-01-20T04:26:58.430Z,69.19
2023-01-20T04:29:25.274Z,69.42
2023-01-20T04:31:58.802Z,69.49
2023-01-20T04:34:25.819Z,69.43
2023-01-20T04:36:52.775Z,69.52
2023-01-20T04:39:19.609Z,69.89
2023-01-20T04:41:47.680Z,70.07
2023-01-20T04:44:14.504Z,70.16
2023-01-20T04:46:41.371Z,70.12
2023-01-20T04:49:10.591Z,70.21
2023-01-20T04:51:37.509Z,70.14
2023-01-20T04:54:04.452Z,70.10
2023-01-20T04:56:33.727Z,70.12
2023-01-20T04:59:00.702Z,70.10
2023-01-20T05:01:29.820Z,70.31
2023-01-20T05:03:56.943Z,70.71
2023-01-20T05:06:23.889Z,70.92
2023-01-20T05:08:50.834Z,71.07
2023-01-20T05:11:17.826Z,71.20
2023-01-20T05:13:44.827Z,71.11
2023-01-20T05:16:11.843Z,71.08
2023-01-20T05:18:39.126Z,70.95
2023-01-20T05:21:08.931Z,70.86
2023-01-20T05:23:36.099Z,70.82
2023-01-20T05:26:03.244Z,70.94
2023-01-20T05:28:30.183Z,71.17
2023-01-20T05:30:57.328Z,71.27
2023-01-20T05:33:24.488Z,71.12
2023-01-20T05:35:51.640Z,70.81
2023-01-20T05:38:18.584Z,70.54
2023-01-20T05:40:45.537Z,70.57
2023-01-20T05:45:00.980Z,70.90
2023-01-20T05:47:28.557Z,70.62
2023-01-20T05:49:55.808Z,70.59
2023-01-20T05:52:22.988Z,70.46
2023-01-20T05:54:50.202Z,70.14
2023-01-20T05:57:18.547Z,69.89
2023-01-20T05:59:47.936Z,70.13
2023-01-20T06:02:18.903Z,70.24
2023-01-20T06:04:46.707Z,70.37
2023-01-20T06:07:14.042Z,70.42
2023-01-20T06:09:41.399Z,70.53
2023-01-20T06:12:52.928Z,70.64
2023-01-20T06:15:19.953Z,70.56
2023-01-20T06:17:48.541Z,70.56
2023-01-20T06:20:24.797Z,70.72
2023-01-20T06:22:56.065Z,70.85
2023-01-20T06:25:30.473Z,70.95
2023-01-20T06:27:57.475Z,70.92
2023-01-20T06:30:24.914Z,71.02
2023-01-20T06:32:53.105Z,71.13
2023-01-20T06:35:21.826Z,71.03
2023-01-20T06:37:48.853Z,70.93
2023-01-20T06:40:16.949Z,70.89
2023-01-20T06:42:44.031Z,70.84
2023-01-20T06:45:11.517Z,71.04
2023-01-20T06:47:38.819Z,71.23
2023-01-20T06:50:07.811Z,71.14
2023-01-20T06:52:34.875Z,70.81
2023-01-20T06:55:02.036Z,70.51
2023-01-20T06:57:31.496Z,70.39
2023-01-20T06:59:59.521Z,70.25
2023-01-20T07:02:26.924Z,70.37
2023-01-20T07:04:54.343Z,70.53
2023-01-20T07:07:21.547Z,70.39
2023-01-20T07:09:48.697Z,70.28
2023-01-20T07:12:15.821Z,70.37
2023-01-20T07:14:43.013Z,70.03
2023-01-20T07:17:12.482Z,69.59
2023-01-20T07:19:39.624Z,69.59
2023-01-20T07:22:06.698Z,69.57
2023-01-20T07:24:33.831Z,69.33
2023-01-20T07:27:00.991Z,69.37
2023-01-20T07:29:28.013Z,69.37
2023-01-20T07:31:55.356Z,69.35
2023-01-20T07:34:22.578Z,69.18
2023-01-20T07:36:53.090Z,68.94
2023-01-20T07:39:22.954Z,68.77
2023-01-20T07:41:49.957Z,68.71
2023-01-20T07:44:17.080Z,68.79
2023-01-20T07:46:44.159Z,68.84
2023-01-20T07:49:12.441Z,68.66
2023-01-20T07:51:40.088Z,68.43
2023-01-20T07:54:10.042Z,68.33
2023-01-20T07:56:37.113Z,68.09
2023-01-20T07:59:04.300Z,68.03
2023-01-20T08:01:32.138Z,68.10
2023-01-20T08:04:00.835Z,68.38
2023-01-20T08:06:29.856Z,68.29
2023-01-20T08:08:58.876Z,68.26
2023-01-20T08:11:26.185Z,68.30
2023-01-20T08:13:53.472Z,68.28
2023-01-20T08:16:21.081Z,67.96
2023-01-20T08:18:48.456Z,67.82
2023-01-20T08:21:23.637Z,67.92
2023-01-20T08:23:50.854Z,68.13
2023-01-20T08:26:19.672Z,68.02
2023-01-20T08:28:47.756Z,68.07
2023-01-20T08:31:16.934Z,67.88
2023-01-20T08:33:44.197Z,67.69
2023-01-20T08:36:19.286Z,67.49
2023-01-20T08:38:46.751Z,67.01
2023-01-20T08:41:19.126Z,66.64
2023-01-20T08:43:46.147Z,66.56
2023-01-20T08:46:14.252Z,66.66
2023-01-20T08:48:41.896Z,66.74
2023-01-20T08:51:19.752Z,66.52
2023-01-20T08:53:49.179Z,66.36
2023-01-20T08:56:16.993Z,66.34
2023-01-20T08:58:45.235Z,66.21
2023-01-20T09:01:23.836Z,66.36
2023-01-20T09:04:04.429Z,66.24
2023-01-20T09:06:43.975Z,66.26
2023-01-20T09:09:13.616Z,66.28
2023-01-20T09:11:41.133Z,66.28
2023-01-20T09:14:08.397Z,66.19
2023-01-20T09:16:35.693Z,65.93
2023-01-20T09:19:03.652Z,65.72
2023-01-20T09:21:33.262Z,65.78
2023-01-20T09:24:00.532Z,65.63
2023-01-20T09:26:35.675Z,65.48
2023-01-20T09:29:09.923Z,65.42
2023-01-20T09:31:47.470Z,65.25
2023-01-20T09:34:19.761Z,65.08
2023-01-20T09:37:23.819Z,64.87
2023-01-20T09:40:09.826Z,65.00
2023-01-20T09:42:55.695Z,64.97
2023-01-20T09:45:39.167Z,64.89
2023-01-20T09:48:43.973Z,64.88
2023-01-20T09:51:37.546Z,65.01
2023-01-20T09:54:08.939Z,65.15
2023-01-20T10:10:42.619Z,64.23
2023-01-20T10:13:20.056Z,62.25
2023-01-20T10:15:49.895Z,61.65
2023-01-20T10:18:19.988Z,61.59
2023-01-20T10:20:52.906Z,61.50
2023-01-20T10:23:32.002Z,61.56
2023-01-20T10:26:06.020Z,61.74
2023-01-20T10:28:57.847Z,61.60
2023-01-20T10:31:29.525Z,61.01
2023-01-20T10:33:59.726Z,60.62
2023-01-20T10:36:28.347Z,60.73
2023-01-20T10:39:01.530Z,60.62
2023-01-20T10:41:38.997Z,60.67
2023-01-20T10:44:10.957Z,60.81
2023-01-20T10:47:17.429Z,60.86
2023-01-20T10:50:12.125Z,61.04
2023-01-20T10:52:58.321Z,60.90
2023-01-20T10:56:13.958Z,61.05
2023-01-20T10:58:42.938Z,61.16
2023-01-20T11:01:13.204Z,61.23
2023-01-20T11:03:42.323Z,61.24
2023-01-20T11:06:27.367Z,61.37
2023-01-20T11:08:54.748Z,61.32
2023-01-20T11:11:23.309Z,61.58
2023-01-20T11:13:53.861Z,61.62
2023-01-20T11:16:25.752Z,61.64
2023-01-20T11:18:56.763Z,61.82
2023-01-20T11:21:24.331Z,61.69
2023-01-20T11:23:51.784Z,61.58
2023-01-20T11:26:25.635Z,61.39
2023-01-20T11:28:57.551Z,61.26
2023-01-20T11:31:44.338Z,61.11
2023-01-20T11:34:27.149Z,60.63
2023-01-20T11:37:06.473Z,60.68
2023-01-20T11:39:58.458Z,60.76
2023-01-20T11:42:27.438Z,60.84
2023-01-20T11:44:55.203Z,60.76
2023-01-20T11:47:30.661Z,60.71
2023-01-20T11:50:04.157Z,60.87
2023-01-20T11:52:35.908Z,60.90
2023-01-20T11:55:06.849Z,60.89
2023-01-20T11:57:33.819Z,60.88
2023-01-20T12:00:00.712Z,60.84
2023-01-20T12:02:27.797Z,60.91
2023-01-20T12:05:03.037Z,60.77
2023-01-20T12:07:33.559Z,60.81
2023-01-20T12:10:04.052Z,60.89
2023-01-20T12:12:45.082Z,60.79
2023-01-20T12:15:17.954Z,60.72
2023-01-20T12:18:11.256Z,60.75
2023-01-20T12:20:55.447Z,60.64
2023-01-20T12:23:45.244Z,60.70
2023-01-20T12:26:13.996Z,60.60
2023-01-20T12:29:02.796Z,60.31
2023-01-20T12:31:30.176Z,60.20
2023-01-20T12:34:03.427Z,59.93
2023-01-20T12:36:35.708Z,59.76
2023-01-20T12:39:11.777Z,59.64
2023-01-20T12:41:57.460Z,59.20
2023-01-20T12:44:35.987Z,59.28
2023-01-20T12:47:08.796Z,59.41
2023-01-20T12:49:46.959Z,59.49
2023-01-20T12:52:22.872Z,59.40
2023-01-20T12:54:55.803Z,59.34
2023-01-20T12:57:34.940Z,59.28
2023-01-20T13:00:15.309Z,59.22
2023-01-20T13:02:51.776Z,58.84
2023-01-20T13:05:27.721Z,58.20
2023-01-20T13:07:57.700Z,57.64
2023-01-20T13:10:49.517Z,57.13
2023-01-20T13:13:25.068Z,56.73
2023-01-20T13:16:02.307Z,56.60
2023-01-20T13:18:41.949Z,56.57
2023-01-20T13:21:18.629Z,56.48
2023-01-20T13:23:46.135Z,56.90
2023-01-20T13:26:13.230Z,57.03
2023-01-20T13:28:50.320Z,57.23
2023-01-20T13:31:35.869Z,57.29
2023-01-20T13:34:21.535Z,57.61
2023-01-20T13:37:04.291Z,57.79
2023-01-20T13:39:39.103Z,58.14
2023-01-20T13:42:29.212Z,58.45
2023-01-20T14:10:30.707Z,56.75
2023-01-20T14:12:57.756Z,55.76
2023-01-20T14:15:28.647Z,56.04
2023-01-20T14:17:55.853Z,56.33
2023-01-20T14:20:23.516Z,56.93
2023-01-20T14:22:50.345Z,57.24
2023-01-20T14:25:25.306Z,57.37
2023-01-20T14:27:52.456Z,57.46
2023-01-20T14:30:28.316Z,57.58
2023-01-20T14:32:55.236Z,58.00
2023-01-20T14:35:33.200Z,58.43
2023-01-20T14:38:00.397Z,58.52
2023-01-20T14:40:31.254Z,58.64
2023-01-20T14:43:03.095Z,58.64
2023-01-20T14:45:31.789Z,58.81
2023-01-20T14:48:00.146Z,59.51
2023-01-20T14:50:27.227Z,60.09
2023-01-20T14:52:54.345Z,60.18
2023-01-20T14:55:35.227Z,60.46
2023-01-20T14:58:12.612Z,60.86
2023-01-20T15:00:42.538Z,61.03
2023-01-20T15:03:29.880Z,61.13
2023-01-20T15:05:58.944Z,61.56
2023-01-20T15:08:32.556Z,61.94
2023-01-20T15:11:18.131Z,61.90
2023-01-20T15:13:52.447Z,62.12
2023-01-20T15:16:48.781Z,62.64
2023-01-20T15:19:17.979Z,62.65
2023-01-20T15:21:57.649Z,62.61
2023-01-20T15:24:30.750Z,62.79
2023-01-20T15:26:59.809Z,62.90
2023-01-20T15:29:32.224Z,63.00
2023-01-20T15:32:09.076Z,63.10
2023-01-20T15:34:35.946Z,63.07
2023-01-20T15:37:02.851Z,63.38
2023-01-20T15:39:30.248Z,63.51
2023-01-20T15:41:57.622Z,63.64
2023-01-20T15:44:25.223Z,63.65
2023-01-20T15:46:53.799Z,63.65
2023-01-20T15:49:21.779Z,63.64
2023-01-20T15:51:48.865Z,63.71
2023-01-20T15:54:16.083Z,63.64
2023-01-20T15:56:42.830Z,63.61
2023-01-20T15:59:12.309Z,63.56
2023-01-20T16:01:39.491Z,63.56
2023-01-20T16:04:07.033Z,63.64
2023-01-20T16:06:34.188Z,63.69
2023-01-20T16:09:01.824Z,63.83
2023-01-20T16:11:28.867Z,63.98
2023-01-20T16:13:57.376Z,64.02
2023-01-20T16:16:25.171Z,64.05
2023-01-20T16:18:53.522Z,64.12
2023-01-20T16:21:20.489Z,64.01
2023-01-20T16:23:47.419Z,64.05
2023-01-20T16:26:16.014Z,63.86
2023-01-20T16:28:42.946Z,63.89
2023-01-20T16:31:11.825Z,63.92
2023-01-20T16:33:38.754Z,64.05
2023-01-20T16:36:08.903Z,64.02
2023-01-20T16:38:35.690Z,64.13
2023-01-20T16:41:16.382Z,64.12
2023-01-20T16:43:43.147Z,64.02
2023-01-20T16:46:13.854Z,64.28
2023-01-20T16:48:41.034Z,64.38
2023-01-20T16:51:11.984Z,64.39
2023-01-20T16:53:39.945Z,64.53
2023-01-20T16:56:20.921Z,64.53
2023-01-20T16:58:49.435Z,64.62
2023-01-20T17:01:24.125Z,64.78
2023-01-20T17:03:52.453Z,64.76
2023-01-20T17:06:21.795Z,64.82
2023-01-20T17:08:50.444Z,64.73
2023-01-20T17:11:21.944Z,64.63
2023-01-20T17:13:49.325Z,64.67
2023-01-20T17:16:16.784Z,64.91
2023-01-20T17:18:46.961Z,64.97
2023-01-20T17:21:14.182Z,65.03
2023-01-20T17:23:41.790Z,64.85
2023-01-20T17:26:09.246Z,64.67
2023-01-20T17:28:35.993Z,64.59
2023-01-20T17:31:04.338Z,64.53
2023-01-20T17:33:31.217Z,64.37
2023-01-20T17:35:59.928Z,64.52
2023-01-20T17:38:28.197Z,64.57
2023-01-20T17:41:06.079Z,64.51
2023-01-20T17:43:36.176Z,64.59
2023-01-20T17:46:13.539Z,64.89
2023-01-20T17:48:40.339Z,65.07
2023-01-20T17:51:12.338Z,65.09
2023-01-20T18:06:15.461Z,64.62
2023-01-20T18:08:42.762Z,63.68
2023-01-20T18:11:16.746Z,63.59
2023-01-20T18:13:45.343Z,63.66
2023-01-20T18:16:13.524Z,63.69
2023-01-20T18:18:41.038Z,63.69
2023-01-20T18:21:09.797Z,63.83
2023-01-20T18:23:38.987Z,63.99
2023-01-20T18:26:06.710Z,63.95
2023-01-20T18:28:34.485Z,64.07
2023-01-20T18:31:08.114Z,64.16
2023-01-20T18:33:39.782Z,64.24
2023-01-20T18:36:07.507Z,64.40
2023-01-20T18:38:34.559Z,64.44
2023-01-20T18:41:02.327Z,64.60
2023-01-20T18:43:29.825Z,64.54
2023-01-20T18:45:56.790Z,64.42
2023-01-20T18:48:25.484Z,64.57
2023-01-20T18:50:53.301Z,64.65
2023-01-20T18:53:20.324Z,64.70
2023-01-20T18:55:47.272Z,64.88
2023-01-20T18:58:16.571Z,64.82
2023-01-20T19:00:43.926Z,64.93
2023-01-20T19:03:10.788Z,64.89
2023-01-20T19:05:37.630Z,64.95
2023-01-20T19:08:05.378Z,65.03
2023-01-20T19:10:32.323Z,65.02
2023-01-20T19:12:59.117Z,64.92
2023-01-20T19:15:26.129Z,64.88
2023-01-20T19:17:53.059Z,64.87
2023-01-20T19:20:20.001Z,65.06
2023-01-20T19:22:46.946Z,65.06
2023-01-20T19:25:13.891Z,64.99
2023-01-20T19:27:40.655Z,64.78
2023-01-20T19:30:08.648Z,64.73
2023-01-20T19:32:35.652Z,64.85
2023-01-20T19:35:02.417Z,65.04
2023-01-20T19:37:29.319Z,65.04
2023-01-20T19:39:56.794Z,65.01
2023-01-20T19:42:25.723Z,64.92
2023-01-20T19:44:52.800Z,64.93
2023-01-20T19:47:19.788Z,64.97
2023-01-20T19:49:46.731Z,65.07
2023-01-20T19:52:13.588Z,65.16
2023-01-20T19:54:40.432Z,65.10
2023-01-20T19:57:07.362Z,65.00
2023-01-20T19:59:34.220Z,64.99
2023-01-20T20:02:01.355Z,65.00
2023-01-20T20:04:28.235Z,65.00
2023-01-20T20:06:55.259Z,65.01
2023-01-20T20:09:25.996Z,64.85
2023-01-20T20:11:53.184Z,64.79
2023-01-20T20:14:21.528Z,64.77
2023-01-20T20:16:48.811Z,64.72
2023-01-20T20:19:18.165Z,64.53
2023-01-20T20:21:45.422Z,64.31
2023-01-20T20:24:13.295Z,64.24
2023-01-20T20:26:40.232Z,64.09
2023-01-20T20:29:07.617Z,64.04
2023-01-20T20:31:36.433Z,64.04
2023-01-20T20:34:03.935Z,64.06
2023-01-20T20:36:33.044Z,64.14
2023-01-20T20:39:01.260Z,64.24
2023-01-20T20:41:31.227Z,64.26
2023-01-20T20:43:59.100Z,64.16
2023-01-20T20:46:26.577Z,64.14
2023-01-20T20:48:55.031Z,64.24
2023-01-20T20:51:23.890Z,64.23
2023-01-20T20:53:54.140Z,64.33
2023-01-20T20:56:21.293Z,64.34
2023-01-20T20:59:00.484Z,64.35
2023-01-20T21:01:29.697Z,64.46
2023-01-20T21:03:58.086Z,64.52
2023-01-20T21:06:25.721Z,64.55
2023-01-20T21:08:52.882Z,64.57
2023-01-20T21:11:20.592Z,64.51
2023-01-20T21:13:49.649Z,64.44
2023-01-20T21:27:20.638Z,63.99
2023-01-20T21:29:47.464Z,62.70
2023-01-20T21:32:14.391Z,62.60
2023-01-20T21:34:41.359Z,62.67
2023-01-20T21:37:08.604Z,62.83
2023-01-20T21:39:35.538Z,62.86
2023-01-20T21:42:02.581Z,62.94
2023-01-20T21:44:29.538Z,62.91
2023-01-20T21:46:57.322Z,63.11
2023-01-20T21:49:43.077Z,63.37
2023-01-20T21:52:33.985Z,63.37
2023-01-20T21:55:01.377Z,63.31
2023-01-20T21:57:32.900Z,63.35
2023-01-20T22:00:00.371Z,63.45
2023-01-20T22:02:28.168Z,63.54
2023-01-20T22:04:55.780Z,63.64
2023-01-20T22:07:23.145Z,63.74
2023-01-20T22:09:50.014Z,63.97
2023-01-20T22:12:16.878Z,64.01
2023-01-20T22:14:43.793Z,64.07
2023-01-20T22:17:11.327Z,64.08
2023-01-20T22:19:38.781Z,64.13
2023-01-20T22:22:05.831Z,64.19
2023-01-20T22:24:32.882Z,64.27
2023-01-20T22:27:00.129Z,64.46
2023-01-20T22:29:27.074Z,64.53
2023-01-20T22:31:54.655Z,64.52
2023-01-20T22:34:21.693Z,64.53
2023-01-20T22:36:48.629Z,64.69
2023-01-20T22:39:15.882Z,64.61
2023-01-20T22:41:42.832Z,64.62
2023-01-20T22:44:09.664Z,64.89
2023-01-20T22:46:36.559Z,64.77
2023-01-20T22:49:03.668Z,64.78
2023-01-20T22:51:30.714Z,64.99
2023-01-20T22:53:58.989Z,65.07
2023-01-20T22:56:27.833Z,65.04
2023-01-20T22:58:58.319Z,65.08
2023-01-20T23:01:32.967Z,65.14
2023-01-20T23:04:01.621Z,65.10
2023-01-20T23:06:29.907Z,65.23
2023-01-20T23:08:56.844Z,65.29
2023-01-20T23:11:24.095Z,65.34
2023-01-20T23:13:51.491Z,65.38
2023-01-20T23:16:20.258Z,65.30
2023-01-20T23:18:47.291Z,65.41
2023-01-20T23:21:14.288Z,65.36
2023-01-20T23:23:41.386Z,65.49
2023-01-20T23:26:16.654Z,65.53
2023-01-20T23:28:44.284Z,65.46
2023-01-20T23:31:13.237Z,65.60
2023-01-20T23:33:42.611Z,65.50
2023-01-20T23:36:16.490Z,65.42
2023-01-20T23:38:43.566Z,65.49
2023-01-20T23:41:11.319Z,65.57
2023-01-20T23:43:38.394Z,65.75
2023-01-20T23:46:06.285Z,65.97
2023-01-20T23:48:33.705Z,66.22
2023-01-20T23:51:01.987Z,66.42
2023-01-20T23:53:30.562Z,66.25
2023-01-20T23:56:08.150Z,66.09
2023-01-20T23:58:35.093Z,66.13
